sensor_id;sensor_type;location;lat;lon;timestamp;pressure;altitude;pressure_sealevel;temperature;humidity
18821;BME280;9539;59.332;18.034;2023-02-15T00:00:25;102375.56;;;25.49;27.35
18821;BME280;9539;59.332;18.034;2023-02-15T00:02:47;102377.25;;;25.60;26.79
18821;BME280;9539;59.332;18.034;2023-02-15T00:05:09;102379.09;;;25.23;27.30
18821;BME280;9539;59.332;18.034;2023-02-15T00:07:32;102375.69;;;25.85;26.77
18821;BME280;9539;59.332;18.034;2023-02-15T00:09:54;102370.06;;;24.85;27.79
18821;BME280;9539;59.332;18.034;2023-02-15T00:12:16;102368.34;;;24.84;28.20
18821;BME280;9539;59.332;18.034;2023-02-15T00:14:38;102364.94;;;24.82;28.06
18821;BME280;9539;59.332;18.034;2023-02-15T00:17:00;102364.84;;;25.21;27.58
18821;BME280;9539;59.332;18.034;2023-02-15T00:19:22;102349.16;;;25.87;26.93
18821;BME280;9539;59.332;18.034;2023-02-15T00:21:45;102361.28;;;24.35;28.54
18821;BME280;9539;59.332;18.034;2023-02-15T00:24:11;102353.47;;;25.62;26.88
18821;BME280;9539;59.332;18.034;2023-02-15T00:26:33;102344.75;;;26.21;26.65
18821;BME280;9539;59.332;18.034;2023-02-15T00:28:56;102347.97;;;25.44;27.05
18821;BME280;9539;59.332;18.034;2023-02-15T00:31:19;102345.00;;;26.10;26.49
18821;BME280;9539;59.332;18.034;2023-02-15T00:33:41;102345.75;;;26.03;26.82
18821;BME280;9539;59.332;18.034;2023-02-15T00:36:04;102350.03;;;26.05;26.18
18821;BME280;9539;59.332;18.034;2023-02-15T00:38:26;102351.75;;;25.34;27.55
18821;BME280;9539;59.332;18.034;2023-02-15T00:40:53;102345.66;;;24.76;27.80
18821;BME280;9539;59.332;18.034;2023-02-15T00:43:15;102341.03;;;26.05;26.82
18821;BME280;9539;59.332;18.034;2023-02-15T00:45:37;102333.06;;;25.76;26.88
18821;BME280;9539;59.332;18.034;2023-02-15T00:47:59;102333.97;;;26.30;26.34
18821;BME280;9539;59.332;18.034;2023-02-15T00:50:20;102337.03;;;26.78;25.72
18821;BME280;9539;59.332;18.034;2023-02-15T00:52:43;102340.38;;;26.46;25.73
18821;BME280;9539;59.332;18.034;2023-02-15T00:55:05;102332.63;;;25.26;27.15
18821;BME280;9539;59.332;18.034;2023-02-15T00:57:29;102337.31;;;24.96;27.51
18821;BME280;9539;59.332;18.034;2023-02-15T00:59:51;102336.53;;;26.31;26.19
18821;BME280;9539;59.332;18.034;2023-02-15T01:02:13;102335.72;;;24.28;28.72
18821;BME280;9539;59.332;18.034;2023-02-15T01:04:35;102332.06;;;25.77;26.85
18821;BME280;9539;59.332;18.034;2023-02-15T01:06:57;102341.91;;;23.61;29.49
18821;BME280;9539;59.332;18.034;2023-02-15T01:09:19;102341.19;;;24.94;28.11
18821;BME280;9539;59.332;18.034;2023-02-15T01:11:41;102333.06;;;24.94;28.18
18821;BME280;9539;59.332;18.034;2023-02-15T01:14:05;102333.72;;;24.96;27.67
18821;BME280;9539;59.332;18.034;2023-02-15T01:16:27;102328.38;;;23.71;29.26
18821;BME280;9539;59.332;18.034;2023-02-15T01:18:50;102331.00;;;24.40;28.24
18821;BME280;9539;59.332;18.034;2023-02-15T01:21:13;102322.50;;;25.18;26.92
18821;BME280;9539;59.332;18.034;2023-02-15T01:23:36;102322.91;;;24.77;28.17
18821;BME280;9539;59.332;18.034;2023-02-15T01:26:01;102311.81;;;24.60;27.53
18821;BME280;9539;59.332;18.034;2023-02-15T01:28:23;102314.09;;;24.65;28.27
18821;BME280;9539;59.332;18.034;2023-02-15T01:30:47;102316.97;;;25.37;27.15
18821;BME280;9539;59.332;18.034;2023-02-15T01:33:09;102306.75;;;24.85;27.25
18821;BME280;9539;59.332;18.034;2023-02-15T01:35:37;102315.28;;;23.95;28.69
18821;BME280;9539;59.332;18.034;2023-02-15T01:37:59;102306.03;;;24.92;27.63
18821;BME280;9539;59.332;18.034;2023-02-15T01:40:22;102296.94;;;24.74;27.86
18821;BME280;9539;59.332;18.034;2023-02-15T01:42:45;102306.16;;;24.25;28.69
18821;BME280;9539;59.332;18.034;2023-02-15T01:45:18;102292.00;;;24.97;27.32
18821;BME280;9539;59.332;18.034;2023-02-15T01:47:44;102290.53;;;25.30;27.20
18821;BME280;9539;59.332;18.034;2023-02-15T01:50:11;102286.91;;;24.75;27.50
18821;BME280;9539;59.332;18.034;2023-02-15T01:52:35;102286.00;;;24.37;28.09
18821;BME280;9539;59.332;18.034;2023-02-15T01:54:57;102283.81;;;24.50;28.13
18821;BME280;9539;59.332;18.034;2023-02-15T01:57:23;102283.16;;;25.22;27.44
18821;BME280;9539;59.332;18.034;2023-02-15T01:59:50;102281.50;;;25.39;27.06
18821;BME280;9539;59.332;18.034;2023-02-15T02:02:15;102278.09;;;25.55;26.69
18821;BME280;9539;59.332;18.034;2023-02-15T02:04:41;102279.22;;;25.62;27.00
18821;BME280;9539;59.332;18.034;2023-02-15T02:07:06;102275.28;;;24.55;28.14
18821;BME280;9539;59.332;18.034;2023-02-15T02:09:29;102268.44;;;25.70;26.95
18821;BME280;9539;59.332;18.034;2023-02-15T02:11:51;102264.41;;;25.01;27.76
18821;BME280;9539;59.332;18.034;2023-02-15T02:14:15;102270.31;;;25.42;27.02
18821;BME280;9539;59.332;18.034;2023-02-15T02:16:45;102266.03;;;24.09;28.60
18821;BME280;9539;59.332;18.034;2023-02-15T02:19:31;102260.72;;;24.83;27.44
18821;BME280;9539;59.332;18.034;2023-02-15T02:22:20;102257.59;;;24.41;28.31
18821;BME280;9539;59.332;18.034;2023-02-15T02:25:13;102257.84;;;25.22;27.40
18821;BME280;9539;59.332;18.034;2023-02-15T02:27:44;102263.13;;;25.68;26.84
18821;BME280;9539;59.332;18.034;2023-02-15T02:30:35;102255.16;;;25.84;26.56
18821;BME280;9539;59.332;18.034;2023-02-15T02:33:35;102246.75;;;24.32;28.41
18821;BME280;9539;59.332;18.034;2023-02-15T02:36:08;102238.31;;;23.38;28.88
18821;BME280;9539;59.332;18.034;2023-02-15T02:38:48;102245.31;;;25.56;26.80
18821;BME280;9539;59.332;18.034;2023-02-15T02:41:18;102242.63;;;24.08;28.81
18821;BME280;9539;59.332;18.034;2023-02-15T02:43:48;102234.50;;;23.70;29.23
18821;BME280;9539;59.332;18.034;2023-02-15T02:46:17;102234.56;;;25.19;27.40
18821;BME280;9539;59.332;18.034;2023-02-15T02:48:43;102234.06;;;25.51;27.01
18821;BME280;9539;59.332;18.034;2023-02-15T02:51:05;102225.44;;;25.56;27.13
18821;BME280;9539;59.332;18.034;2023-02-15T02:53:30;102234.13;;;25.41;27.16
18821;BME280;9539;59.332;18.034;2023-02-15T02:55:55;102229.91;;;26.36;26.09
18821;BME280;9539;59.332;18.034;2023-02-15T02:58:21;102231.91;;;25.90;26.42
18821;BME280;9539;59.332;18.034;2023-02-15T03:00:49;102224.75;;;25.54;26.99
18821;BME280;9539;59.332;18.034;2023-02-15T03:03:16;102220.22;;;25.44;27.49
18821;BME280;9539;59.332;18.034;2023-02-15T03:05:45;102221.84;;;26.08;26.45
18821;BME280;9539;59.332;18.034;2023-02-15T03:08:09;102218.94;;;26.27;26.39
18821;BME280;9539;59.332;18.034;2023-02-15T03:10:32;102216.47;;;27.10;25.10
18821;BME280;9539;59.332;18.034;2023-02-15T03:12:56;102221.69;;;26.10;26.15
18821;BME280;9539;59.332;18.034;2023-02-15T03:15:20;102218.81;;;25.94;26.28
18821;BME280;9539;59.332;18.034;2023-02-15T03:17:45;102213.63;;;25.02;27.42
18821;BME280;9539;59.332;18.034;2023-02-15T03:20:11;102215.88;;;25.34;27.31
18821;BME280;9539;59.332;18.034;2023-02-15T03:22:40;102218.03;;;25.48;27.17
18821;BME280;9539;59.332;18.034;2023-02-15T03:25:08;102212.31;;;25.51;26.89
18821;BME280;9539;59.332;18.034;2023-02-15T03:27:33;102216.13;;;23.64;28.82
18821;BME280;9539;59.332;18.034;2023-02-15T03:29:59;102218.59;;;24.79;27.87
18821;BME280;9539;59.332;18.034;2023-02-15T03:32:22;102219.88;;;25.75;26.69
18821;BME280;9539;59.332;18.034;2023-02-15T03:34:45;102208.78;;;24.68;27.82
18821;BME280;9539;59.332;18.034;2023-02-15T03:37:13;102211.81;;;25.20;26.98
18821;BME280;9539;59.332;18.034;2023-02-15T03:39:43;102209.94;;;24.00;28.54
18821;BME280;9539;59.332;18.034;2023-02-15T03:42:12;102210.50;;;24.97;27.57
18821;BME280;9539;59.332;18.034;2023-02-15T03:44:41;102198.84;;;23.65;29.47
18821;BME280;9539;59.332;18.034;2023-02-15T03:47:11;102189.56;;;23.77;28.92
18821;BME280;9539;59.332;18.034;2023-02-15T03:49:40;102193.34;;;26.20;25.94
18821;BME280;9539;59.332;18.034;2023-02-15T03:52:05;102196.63;;;25.27;27.09
18821;BME280;9539;59.332;18.034;2023-02-15T03:54:30;102181.00;;;26.26;25.89
18821;BME280;9539;59.332;18.034;2023-02-15T03:57:11;102182.66;;;24.21;28.48
18821;BME280;9539;59.332;18.034;2023-02-15T03:59:51;102190.50;;;24.14;28.80
18821;BME280;9539;59.332;18.034;2023-02-15T04:02:34;102173.97;;;24.91;28.07
18821;BME280;9539;59.332;18.034;2023-02-15T04:04:59;102182.47;;;25.06;27.55
18821;BME280;9539;59.332;18.034;2023-02-15T04:07:21;102171.63;;;25.77;26.67
18821;BME280;9539;59.332;18.034;2023-02-15T04:09:43;102177.50;;;25.55;26.89
18821;BME280;9539;59.332;18.034;2023-02-15T04:12:27;102166.53;;;22.94;29.47
18821;BME280;9539;59.332;18.034;2023-02-15T04:14:49;102165.97;;;23.00;30.23
18821;BME280;9539;59.332;18.034;2023-02-15T04:17:28;102163.19;;;24.99;27.83
18821;BME280;9539;59.332;18.034;2023-02-15T04:19:51;102162.59;;;25.05;27.31
18821;BME280;9539;59.332;18.034;2023-02-15T04:22:30;102156.53;;;25.29;26.99
18821;BME280;9539;59.332;18.034;2023-02-15T04:25:10;102152.44;;;25.43;27.14
18821;BME280;9539;59.332;18.034;2023-02-15T04:27:33;102161.97;;;24.20;28.39
18821;BME280;9539;59.332;18.034;2023-02-15T04:29:55;102150.28;;;25.64;27.05
18821;BME280;9539;59.332;18.034;2023-02-15T04:32:17;102151.66;;;24.88;27.42
18821;BME280;9539;59.332;18.034;2023-02-15T04:34:39;102150.69;;;24.15;28.67
18821;BME280;9539;59.332;18.034;2023-02-15T04:37:01;102149.03;;;26.02;26.40
18821;BME280;9539;59.332;18.034;2023-02-15T04:39:23;102159.03;;;25.40;26.64
18821;BME280;9539;59.332;18.034;2023-02-15T04:41:46;102151.91;;;25.39;26.85
18821;BME280;9539;59.332;18.034;2023-02-15T04:44:09;102143.66;;;26.10;26.47
18821;BME280;9539;59.332;18.034;2023-02-15T04:46:31;102143.81;;;24.30;27.60
18821;BME280;9539;59.332;18.034;2023-02-15T04:48:54;102151.03;;;25.39;27.19
18821;BME280;9539;59.332;18.034;2023-02-15T04:51:16;102136.97;;;25.61;26.58
18821;BME280;9539;59.332;18.034;2023-02-15T04:53:37;102131.59;;;24.98;26.98
18821;BME280;9539;59.332;18.034;2023-02-15T04:56:00;102135.50;;;25.31;27.25
18821;BME280;9539;59.332;18.034;2023-02-15T04:58:21;102125.34;;;23.97;28.46
18821;BME280;9539;59.332;18.034;2023-02-15T05:00:45;102131.38;;;23.14;28.92
18821;BME280;9539;59.332;18.034;2023-02-15T05:03:07;102122.91;;;24.67;28.22
18821;BME280;9539;59.332;18.034;2023-02-15T05:05:29;102126.81;;;25.45;26.73
18821;BME280;9539;59.332;18.034;2023-02-15T05:07:51;102124.66;;;24.32;28.33
18821;BME280;9539;59.332;18.034;2023-02-15T05:10:13;102114.25;;;23.61;29.05
18821;BME280;9539;59.332;18.034;2023-02-15T05:12:35;102119.22;;;24.68;28.17
18821;BME280;9539;59.332;18.034;2023-02-15T05:14:57;102115.75;;;24.02;28.76
18821;BME280;9539;59.332;18.034;2023-02-15T05:17:21;102119.88;;;25.69;26.80
18821;BME280;9539;59.332;18.034;2023-02-15T05:19:43;102126.66;;;25.47;26.35
18821;BME280;9539;59.332;18.034;2023-02-15T05:22:05;102123.75;;;25.84;26.53
18821;BME280;9539;59.332;18.034;2023-02-15T05:24:27;102121.44;;;25.71;26.82
18821;BME280;9539;59.332;18.034;2023-02-15T05:27:07;102122.69;;;25.41;27.21
18821;BME280;9539;59.332;18.034;2023-02-15T05:29:49;102121.75;;;25.15;26.95
18821;BME280;9539;59.332;18.034;2023-02-15T05:32:12;102119.88;;;25.51;26.81
18821;BME280;9539;59.332;18.034;2023-02-15T05:34:35;102103.72;;;24.24;27.84
18821;BME280;9539;59.332;18.034;2023-02-15T05:36:57;102116.25;;;25.25;26.78
18821;BME280;9539;59.332;18.034;2023-02-15T05:39:19;102117.66;;;25.46;26.90
18821;BME280;9539;59.332;18.034;2023-02-15T05:41:41;102112.34;;;24.64;27.44
18821;BME280;9539;59.332;18.034;2023-02-15T05:44:04;102103.28;;;24.56;27.52
18821;BME280;9539;59.332;18.034;2023-02-15T05:46:26;102119.22;;;25.14;27.27
18821;BME280;9539;59.332;18.034;2023-02-15T05:48:48;102108.88;;;25.35;26.82
18821;BME280;9539;59.332;18.034;2023-02-15T05:51:12;102111.69;;;24.80;27.33
18821;BME280;9539;59.332;18.034;2023-02-15T05:53:37;102108.44;;;24.49;27.73
18821;BME280;9539;59.332;18.034;2023-02-15T05:56:00;102110.63;;;25.79;26.42
18821;BME280;9539;59.332;18.034;2023-02-15T05:58:23;102097.69;;;26.25;25.83
18821;BME280;9539;59.332;18.034;2023-02-15T06:00:45;102107.84;;;25.71;26.40
18821;BME280;9539;59.332;18.034;2023-02-15T06:03:07;102101.94;;;26.70;25.55
18821;BME280;9539;59.332;18.034;2023-02-15T06:05:29;102099.44;;;26.42;25.45
18821;BME280;9539;59.332;18.034;2023-02-15T06:07:52;102099.56;;;25.37;26.18
18821;BME280;9539;59.332;18.034;2023-02-15T06:10:14;102102.22;;;26.50;25.83
18821;BME280;9539;59.332;18.034;2023-02-15T06:12:36;102098.41;;;26.35;25.60
18821;BME280;9539;59.332;18.034;2023-02-15T06:14:58;102095.09;;;26.23;25.78
18821;BME280;9539;59.332;18.034;2023-02-15T06:17:20;102095.34;;;25.61;25.83
18821;BME280;9539;59.332;18.034;2023-02-15T06:19:43;102092.47;;;26.14;26.06
18821;BME280;9539;59.332;18.034;2023-02-15T06:22:05;102083.34;;;24.65;27.16
18821;BME280;9539;59.332;18.034;2023-02-15T06:24:28;102078.69;;;25.81;26.31
18821;BME280;9539;59.332;18.034;2023-02-15T06:26:50;102086.97;;;25.72;26.49
18821;BME280;9539;59.332;18.034;2023-02-15T06:29:13;102088.50;;;25.57;26.40
18821;BME280;9539;59.332;18.034;2023-02-15T06:31:35;102078.97;;;26.30;25.75
18821;BME280;9539;59.332;18.034;2023-02-15T06:33:57;102080.53;;;26.07;25.76
18821;BME280;9539;59.332;18.034;2023-02-15T06:36:21;102072.78;;;25.60;26.46
18821;BME280;9539;59.332;18.034;2023-02-15T06:38:43;102080.69;;;26.31;25.79
18821;BME280;9539;59.332;18.034;2023-02-15T06:41:06;102081.97;;;24.61;27.44
18821;BME280;9539;59.332;18.034;2023-02-15T06:43:28;102080.97;;;24.80;27.33
18821;BME280;9539;59.332;18.034;2023-02-15T06:45:50;102071.16;;;26.01;25.98
18821;BME280;9539;59.332;18.034;2023-02-15T06:48:13;102073.28;;;27.16;24.94
18821;BME280;9539;59.332;18.034;2023-02-15T06:50:35;102070.03;;;27.12;24.80
18821;BME280;9539;59.332;18.034;2023-02-15T06:52:57;102061.25;;;25.92;26.02
18821;BME280;9539;59.332;18.034;2023-02-15T06:55:19;102084.75;;;25.32;27.09
18821;BME280;9539;59.332;18.034;2023-02-15T06:57:42;102080.91;;;23.51;28.88
18821;BME280;9539;59.332;18.034;2023-02-15T07:00:05;102080.78;;;25.26;26.93
18821;BME280;9539;59.332;18.034;2023-02-15T07:02:28;102084.03;;;25.91;26.48
18821;BME280;9539;59.332;18.034;2023-02-15T07:04:50;102083.28;;;26.41;25.62
18821;BME280;9539;59.332;18.034;2023-02-15T07:07:13;102081.72;;;24.54;27.72
18821;BME280;9539;59.332;18.034;2023-02-15T07:09:35;102086.38;;;24.35;28.00
18821;BME280;9539;59.332;18.034;2023-02-15T07:11:57;102087.34;;;25.41;26.85
18821;BME280;9539;59.332;18.034;2023-02-15T07:14:38;102087.31;;;24.98;27.49
18821;BME280;9539;59.332;18.034;2023-02-15T07:17:01;102092.03;;;23.00;28.92
18821;BME280;9539;59.332;18.034;2023-02-15T07:19:23;102080.03;;;25.77;26.71
18821;BME280;9539;59.332;18.034;2023-02-15T07:21:45;102089.06;;;26.12;26.08
18821;BME280;9539;59.332;18.034;2023-02-15T07:24:07;102083.47;;;24.09;28.06
18821;BME280;9539;59.332;18.034;2023-02-15T07:26:31;102076.91;;;22.97;29.44
18821;BME280;9539;59.332;18.034;2023-02-15T07:28:53;102084.38;;;24.37;28.09
18821;BME280;9539;59.332;18.034;2023-02-15T07:31:16;102072.88;;;25.76;26.69
18821;BME280;9539;59.332;18.034;2023-02-15T07:33:38;102072.34;;;23.46;29.17
18821;BME280;9539;59.332;18.034;2023-02-15T07:36:02;102072.84;;;24.25;28.00
18821;BME280;9539;59.332;18.034;2023-02-15T07:38:25;102063.47;;;25.97;26.33
18821;BME280;9539;59.332;18.034;2023-02-15T07:40:48;102068.53;;;24.59;27.78
18821;BME280;9539;59.332;18.034;2023-02-15T07:43:10;102070.38;;;25.22;27.35
18821;BME280;9539;59.332;18.034;2023-02-15T07:45:32;102072.78;;;25.25;26.83
18821;BME280;9539;59.332;18.034;2023-02-15T07:47:55;102066.09;;;26.40;25.48
18821;BME280;9539;59.332;18.034;2023-02-15T07:50:17;102069.16;;;24.71;27.63
18821;BME280;9539;59.332;18.034;2023-02-15T07:52:39;102066.97;;;23.92;28.21
18821;BME280;9539;59.332;18.034;2023-02-15T07:55:01;102071.25;;;23.95;28.70
18821;BME280;9539;59.332;18.034;2023-02-15T07:57:24;102063.28;;;24.76;27.37
18821;BME280;9539;59.332;18.034;2023-02-15T07:59:46;102074.22;;;24.84;27.19
18821;BME280;9539;59.332;18.034;2023-02-15T08:02:09;102066.28;;;24.18;28.49
18821;BME280;9539;59.332;18.034;2023-02-15T08:04:33;102064.34;;;23.44;28.61
18821;BME280;9539;59.332;18.034;2023-02-15T08:06:55;102060.09;;;24.35;28.33
18821;BME280;9539;59.332;18.034;2023-02-15T08:09:17;102057.00;;;23.83;29.06
18821;BME280;9539;59.332;18.034;2023-02-15T08:11:39;102054.31;;;23.74;28.76
18821;BME280;9539;59.332;18.034;2023-02-15T08:14:02;102050.41;;;23.20;28.86
18821;BME280;9539;59.332;18.034;2023-02-15T08:16:27;102051.69;;;23.26;29.69
18821;BME280;9539;59.332;18.034;2023-02-15T08:18:49;102051.06;;;23.70;28.93
18821;BME280;9539;59.332;18.034;2023-02-15T08:21:13;102048.50;;;24.43;27.74
18821;BME280;9539;59.332;18.034;2023-02-15T08:23:35;102040.63;;;24.85;27.95
18821;BME280;9539;59.332;18.034;2023-02-15T08:25:59;102045.00;;;24.50;28.16
18821;BME280;9539;59.332;18.034;2023-02-15T08:28:21;102034.59;;;25.26;26.97
18821;BME280;9539;59.332;18.034;2023-02-15T08:30:43;102040.19;;;24.89;27.67
18821;BME280;9539;59.332;18.034;2023-02-15T08:33:05;102033.75;;;23.81;28.72
18821;BME280;9539;59.332;18.034;2023-02-15T08:35:27;102037.56;;;24.97;27.54
18821;BME280;9539;59.332;18.034;2023-02-15T08:37:51;102028.31;;;24.90;26.87
18821;BME280;9539;59.332;18.034;2023-02-15T08:40:13;102031.34;;;24.87;27.31
18821;BME280;9539;59.332;18.034;2023-02-15T08:42:35;102026.28;;;23.36;28.30
18821;BME280;9539;59.332;18.034;2023-02-15T08:44:57;102017.72;;;23.97;28.17
18821;BME280;9539;59.332;18.034;2023-02-15T08:47:19;102023.03;;;23.14;29.64
18821;BME280;9539;59.332;18.034;2023-02-15T08:49:41;102029.41;;;24.35;28.09
18821;BME280;9539;59.332;18.034;2023-02-15T08:52:03;102019.84;;;25.55;26.63
18821;BME280;9539;59.332;18.034;2023-02-15T08:54:26;102018.88;;;24.94;27.58
18821;BME280;9539;59.332;18.034;2023-02-15T08:56:49;102015.47;;;22.88;28.95
18821;BME280;9539;59.332;18.034;2023-02-15T08:59:14;102011.13;;;23.63;29.01
18821;BME280;9539;59.332;18.034;2023-02-15T09:01:36;102020.44;;;23.50;29.14
18821;BME280;9539;59.332;18.034;2023-02-15T09:04:00;102010.44;;;21.75;30.08
18821;BME280;9539;59.332;18.034;2023-02-15T09:06:23;102019.47;;;22.84;29.59
18821;BME280;9539;59.332;18.034;2023-02-15T09:08:45;102018.06;;;24.21;27.81
18821;BME280;9539;59.332;18.034;2023-02-15T09:11:10;102016.84;;;25.14;26.83
18821;BME280;9539;59.332;18.034;2023-02-15T09:13:33;102015.88;;;24.52;27.45
18821;BME280;9539;59.332;18.034;2023-02-15T09:15:59;102019.75;;;24.85;27.02
18821;BME280;9539;59.332;18.034;2023-02-15T09:18:21;102008.53;;;24.80;26.71
18821;BME280;9539;59.332;18.034;2023-02-15T09:20:43;102015.94;;;24.06;28.09
18821;BME280;9539;59.332;18.034;2023-02-15T09:23:06;102012.41;;;23.68;28.04
18821;BME280;9539;59.332;18.034;2023-02-15T09:25:28;102010.41;;;24.35;27.62
18821;BME280;9539;59.332;18.034;2023-02-15T09:27:51;102015.78;;;22.85;29.92
18821;BME280;9539;59.332;18.034;2023-02-15T09:30:13;102012.03;;;25.08;26.63
18821;BME280;9539;59.332;18.034;2023-02-15T09:32:36;102006.19;;;25.64;26.37
18821;BME280;9539;59.332;18.034;2023-02-15T09:34:58;102008.22;;;25.44;26.72
18821;BME280;9539;59.332;18.034;2023-02-15T09:37:20;102005.97;;;25.58;26.15
18821;BME280;9539;59.332;18.034;2023-02-15T09:39:43;101995.84;;;25.24;26.69
18821;BME280;9539;59.332;18.034;2023-02-15T09:42:31;101999.47;;;23.43;28.65
18821;BME280;9539;59.332;18.034;2023-02-15T09:45:28;101997.19;;;24.67;27.02
18821;BME280;9539;59.332;18.034;2023-02-15T09:48:23;102000.56;;;24.34;27.02
18821;BME280;9539;59.332;18.034;2023-02-15T09:51:00;102000.44;;;24.53;27.00
18821;BME280;9539;59.332;18.034;2023-02-15T09:53:53;101991.66;;;24.41;27.55
18821;BME280;9539;59.332;18.034;2023-02-15T09:56:22;101979.06;;;25.29;26.12
18821;BME280;9539;59.332;18.034;2023-02-15T09:58:56;101988.81;;;24.43;26.71
18821;BME280;9539;59.332;18.034;2023-02-15T10:01:30;101984.63;;;24.48;26.77
18821;BME280;9539;59.332;18.034;2023-02-15T10:04:18;101983.25;;;24.07;27.58
18821;BME280;9539;59.332;18.034;2023-02-15T10:06:45;101979.75;;;23.97;27.71
18821;BME280;9539;59.332;18.034;2023-02-15T10:09:19;101976.88;;;23.99;28.09
18821;BME280;9539;59.332;18.034;2023-02-15T10:12:12;101974.38;;;24.15;27.94
18821;BME280;9539;59.332;18.034;2023-02-15T10:15:02;101963.59;;;23.02;28.70
18821;BME280;9539;59.332;18.034;2023-02-15T10:17:44;101966.81;;;23.35;28.38
18821;BME280;9539;59.332;18.034;2023-02-15T10:20:17;101960.06;;;23.95;28.35
18821;BME280;9539;59.332;18.034;2023-02-15T10:22:52;101961.44;;;24.72;27.18
18821;BME280;9539;59.332;18.034;2023-02-15T10:25:33;101954.41;;;25.22;27.00
18821;BME280;9539;59.332;18.034;2023-02-15T10:28:02;101953.06;;;24.29;27.45
18821;BME280;9539;59.332;18.034;2023-02-15T10:30:32;101949.88;;;24.52;27.26
18821;BME280;9539;59.332;18.034;2023-02-15T10:33:00;101939.47;;;23.38;28.05
18821;BME280;9539;59.332;18.034;2023-02-15T10:35:27;101944.69;;;23.86;28.14
18821;BME280;9539;59.332;18.034;2023-02-15T10:38:05;101944.44;;;24.07;28.16
18821;BME280;9539;59.332;18.034;2023-02-15T10:40:37;101927.38;;;24.77;26.54
18821;BME280;9539;59.332;18.034;2023-02-15T10:43:12;101928.59;;;25.78;26.04
18821;BME280;9539;59.332;18.034;2023-02-15T10:45:43;101924.63;;;25.13;26.39
18821;BME280;9539;59.332;18.034;2023-02-15T10:48:23;101928.09;;;23.25;28.14
18821;BME280;9539;59.332;18.034;2023-02-15T10:50:48;101927.88;;;24.55;27.98
18821;BME280;9539;59.332;18.034;2023-02-15T10:53:20;101921.03;;;24.51;27.28
18821;BME280;9539;59.332;18.034;2023-02-15T10:55:51;101920.78;;;25.23;26.87
18821;BME280;9539;59.332;18.034;2023-02-15T10:58:24;101919.72;;;24.73;27.00
18821;BME280;9539;59.332;18.034;2023-02-15T11:00:54;101914.66;;;25.47;26.29
18821;BME280;9539;59.332;18.034;2023-02-15T11:03:31;101901.97;;;24.60;27.27
18821;BME280;9539;59.332;18.034;2023-02-15T11:06:01;101911.41;;;24.21;27.94
18821;BME280;9539;59.332;18.034;2023-02-15T11:08:25;101907.31;;;26.23;25.53
18821;BME280;9539;59.332;18.034;2023-02-15T11:10:52;101907.53;;;25.88;25.91
18821;BME280;9539;59.332;18.034;2023-02-15T11:13:17;101901.91;;;24.35;26.88
18821;BME280;9539;59.332;18.034;2023-02-15T11:15:43;101910.47;;;25.01;25.83
18821;BME280;9539;59.332;18.034;2023-02-15T11:18:11;101899.75;;;24.99;26.66
18821;BME280;9539;59.332;18.034;2023-02-15T11:20:41;101895.84;;;23.96;27.80
18821;BME280;9539;59.332;18.034;2023-02-15T11:23:12;101897.81;;;23.39;27.96
18821;BME280;9539;59.332;18.034;2023-02-15T11:25:36;101903.72;;;25.65;26.54
18821;BME280;9539;59.332;18.034;2023-02-15T11:27:59;101906.59;;;23.87;27.98
18821;BME280;9539;59.332;18.034;2023-02-15T11:30:23;101901.81;;;23.99;28.31
18821;BME280;9539;59.332;18.034;2023-02-15T11:32:48;101900.41;;;24.93;27.37
18821;BME280;9539;59.332;18.034;2023-02-15T11:35:19;101898.84;;;24.91;26.67
18821;BME280;9539;59.332;18.034;2023-02-15T11:37:46;101895.06;;;23.58;28.67
18821;BME280;9539;59.332;18.034;2023-02-15T11:40:19;101899.31;;;23.61;28.43
18821;BME280;9539;59.332;18.034;2023-02-15T11:42:42;101885.28;;;23.38;29.40
18821;BME280;9539;59.332;18.034;2023-02-15T11:45:21;101876.94;;;24.49;27.80
18821;BME280;9539;59.332;18.034;2023-02-15T11:47:44;101879.03;;;24.98;27.18
18821;BME280;9539;59.332;18.034;2023-02-15T11:50:11;101881.97;;;23.99;28.64
18821;BME280;9539;59.332;18.034;2023-02-15T11:52:33;101878.88;;;24.21;27.61
18821;BME280;9539;59.332;18.034;2023-02-15T11:54:56;101873.69;;;23.55;28.49
18821;BME280;9539;59.332;18.034;2023-02-15T11:57:23;101867.84;;;26.11;26.02
18821;BME280;9539;59.332;18.034;2023-02-15T11:59:49;101864.31;;;25.01;26.93
18821;BME280;9539;59.332;18.034;2023-02-15T12:02:16;101870.56;;;23.40;29.06
18821;BME280;9539;59.332;18.034;2023-02-15T12:04:40;101871.69;;;25.17;26.92
18821;BME280;9539;59.332;18.034;2023-02-15T12:07:13;101861.06;;;26.23;25.45
18821;BME280;9539;59.332;18.034;2023-02-15T12:09:38;101860.91;;;24.63;27.04
18821;BME280;9539;59.332;18.034;2023-02-15T12:12:24;101862.09;;;23.63;28.23
18821;BME280;9539;59.332;18.034;2023-02-15T12:14:47;101852.81;;;24.46;27.87
18821;BME280;9539;59.332;18.034;2023-02-15T12:17:13;101858.59;;;24.15;27.79
18821;BME280;9539;59.332;18.034;2023-02-15T12:19:38;101855.31;;;23.94;28.24
18821;BME280;9539;59.332;18.034;2023-02-15T12:22:02;101851.34;;;24.77;27.37
18821;BME280;9539;59.332;18.034;2023-02-15T12:24:27;101849.88;;;24.21;27.48
18821;BME280;9539;59.332;18.034;2023-02-15T12:27:02;101839.44;;;24.70;27.26
18821;BME280;9539;59.332;18.034;2023-02-15T12:29:29;101846.59;;;24.18;28.18
18821;BME280;9539;59.332;18.034;2023-02-15T12:31:52;101836.84;;;24.43;27.66
18821;BME280;9539;59.332;18.034;2023-02-15T12:34:21;101845.03;;;24.15;27.36
18821;BME280;9539;59.332;18.034;2023-02-15T12:36:47;101845.47;;;25.33;26.78
18821;BME280;9539;59.332;18.034;2023-02-15T12:39:21;101838.38;;;24.10;27.88
18821;BME280;9539;59.332;18.034;2023-02-15T12:41:56;101835.97;;;21.91;30.65
18821;BME280;9539;59.332;18.034;2023-02-15T12:44:20;101830.00;;;25.00;26.75